Time;durP1;ratioP1;P1;durP2;ratioP2;P2;SDS_P1;SDS_P2;PMS_P1;PMS_P2;Temp;Humidity;BMP_temperature;BMP_pressure;BME280_temperature;BME280_humidity;BME280_pressure;Samples;Min_cycle;Max_cycle;Signal;HPM_P1;HPM_P2
2023/09/08 00:00:05;;;;;;;1.90;0.70;;;14.80;99.90;;;;;;5095875;28;20200;-76
2023/09/08 00:02:36;;;;;;;0.73;0.60;;;14.70;99.90;;;;;;5090333;28;20193;-76
2023/09/08 00:05:07;;;;;;;1.45;0.68;;;14.70;99.90;;;;;;5095546;28;20559;-76
2023/09/08 00:07:38;;;;;;;0.98;0.60;;;14.60;99.90;;;;;;5095283;28;20188;-76
2023/09/08 00:10:12;;;;;;;1.92;0.77;;;14.50;99.90;;;;;;5095220;28;20199;-76
2023/09/08 00:12:44;;;;;;;1.20;0.70;;;14.50;99.90;;;;;;5087350;28;20627;-76
2023/09/08 00:15:15;;;;;;;2.75;1.05;;;14.40;99.90;;;;;;5075234;28;20538;-76
2023/09/08 00:17:47;;;;;;;0.82;0.77;;;14.40;99.90;;;;;;5075755;28;20204;-76
2023/09/08 00:20:17;;;;;;;0.82;0.70;;;14.40;99.90;;;;;;5078512;28;20212;-76
2023/09/08 00:22:51;;;;;;;4.45;1.13;;;14.40;99.90;;;;;;5087178;28;20203;-76
2023/09/08 00:25:24;;;;;;;2.55;0.93;;;14.40;99.90;;;;;;5075083;28;20189;-76
2023/09/08 00:27:54;;;;;;;3.63;0.80;;;14.40;99.90;;;;;;5076857;28;20192;-76
2023/09/08 00:30:25;;;;;;;3.53;1.00;;;14.40;99.90;;;;;;5095061;28;20211;-76
2023/09/08 00:32:56;;;;;;;2.95;1.05;;;14.50;99.90;;;;;;5094570;28;20191;-76
2023/09/08 00:35:27;;;;;;;1.95;1.00;;;14.50;99.90;;;;;;5094987;28;20211;-77
2023/09/08 00:37:57;;;;;;;3.05;1.15;;;14.50;99.90;;;;;;5087363;28;20224;-76
2023/09/08 00:40:30;;;;;;;3.63;1.20;;;14.40;99.90;;;;;;5074783;28;20189;-76
2023/09/08 00:43:01;;;;;;;2.35;1.23;;;14.40;99.90;;;;;;5093625;28;20193;-77
2023/09/08 00:45:33;;;;;;;1.33;0.90;;;14.40;99.90;;;;;;5080983;28;20203;-77
2023/09/08 00:48:04;;;;;;;1.05;0.90;;;14.40;99.90;;;;;;5083084;28;20688;-76
2023/09/08 00:50:35;;;;;;;2.17;0.65;;;14.30;99.90;;;;;;5074721;28;20665;-76
2023/09/08 00:53:07;;;;;;;1.75;0.68;;;14.20;99.90;;;;;;5073922;28;20232;-75
2023/09/08 00:55:41;;;;;;;1.10;0.70;;;14.10;99.90;;;;;;5078703;28;20207;-74
2023/09/08 00:58:13;;;;;;;2.58;0.90;;;14.00;99.90;;;;;;5094277;28;20206;-75
2023/09/08 01:00:44;;;;;;;1.15;0.80;;;14.00;99.90;;;;;;5091426;28;20201;-76
2023/09/08 01:03:15;;;;;;;1.38;0.80;;;14.10;99.90;;;;;;5091742;28;20200;-76
2023/09/08 01:05:47;;;;;;;3.03;0.80;;;14.10;99.90;;;;;;5093692;28;20188;-76
2023/09/08 01:08:19;;;;;;;0.90;0.60;;;14.10;99.90;;;;;;5094556;28;20188;-76
2023/09/08 01:10:52;;;;;;;1.55;0.70;;;14.10;99.90;;;;;;5094520;28;20667;-77
2023/09/08 01:13:22;;;;;;;3.35;0.80;;;14.10;99.90;;;;;;5094449;28;20695;-76
2023/09/08 01:15:53;;;;;;;2.53;0.80;;;14.10;99.90;;;;;;5093290;28;20188;-76
2023/09/08 01:18:24;;;;;;;1.95;0.90;;;14.10;99.90;;;;;;5094445;28;20192;-76
2023/09/08 01:21:33;;;;;;;2.95;0.88;;;14.10;99.90;;;;;;5087867;28;20656;-76
2023/09/08 01:24:20;;;;;;;1.35;0.80;;;14.10;99.90;;;;;;5087085;28;20211;-76
2023/09/08 01:26:53;;;;;;;1.20;0.70;;;14.10;99.90;;;;;;5094246;28;20253;-76
2023/09/08 01:29:25;;;;;;;1.50;0.60;;;14.20;99.90;;;;;;5094019;28;20193;-77
2023/09/08 01:31:56;;;;;;;2.40;0.68;;;14.20;99.90;;;;;;5094083;28;20265;-75
2023/09/08 01:34:27;;;;;;;1.20;0.65;;;14.30;99.90;;;;;;5093888;28;20223;-76
2023/09/08 01:36:59;;;;;;;0.63;0.60;;;14.40;99.90;;;;;;5093833;28;20666;-76
2023/09/08 01:39:30;;;;;;;1.75;0.80;;;14.40;99.90;;;;;;5090455;28;20238;-76
2023/09/08 01:42:03;;;;;;;1.70;0.70;;;14.50;99.90;;;;;;5090451;28;20192;-76
2023/09/08 01:44:34;;;;;;;1.05;0.60;;;14.50;99.90;;;;;;5093638;28;20204;-76
2023/09/08 01:47:04;;;;;;;0.50;0.50;;;14.60;99.90;;;;;;5079975;28;20205;-76
2023/09/08 01:49:35;;;;;;;0.73;0.45;;;14.60;99.90;;;;;;5082489;28;20560;-77
2023/09/08 01:52:06;;;;;;;0.70;0.60;;;14.70;99.90;;;;;;5089662;28;20234;-76
2023/09/08 01:54:37;;;;;;;2.25;0.80;;;14.70;99.90;;;;;;5087479;28;20213;-77
2023/09/08 01:57:09;;;;;;;1.90;0.68;;;14.90;99.90;;;;;;5079422;28;20211;-76
2023/09/08 01:59:40;;;;;;;0.50;0.50;;;15.00;99.90;;;;;;5093381;28;20192;-76
2023/09/08 02:02:11;;;;;;;0.85;0.40;;;15.10;99.90;;;;;;5075519;28;20557;-76
2023/09/08 02:04:42;;;;;;;1.98;0.50;;;15.10;99.90;;;;;;5072153;28;21043;-76
2023/09/08 02:07:12;;;;;;;0.45;0.45;;;15.20;99.90;;;;;;5079511;28;20205;-76
2023/09/08 02:09:44;;;;;;;0.80;0.40;;;15.20;99.90;;;;;;5079802;28;20180;-76
2023/09/08 02:12:16;;;;;;;2.15;0.40;;;15.10;99.90;;;;;;5092623;28;20265;-76
2023/09/08 02:14:47;;;;;;;0.63;0.50;;;15.00;99.90;;;;;;5093196;28;20695;-78
2023/09/08 02:17:18;;;;;;;0.70;0.50;;;15.00;99.90;;;;;;5093278;28;20569;-76
2023/09/08 02:19:48;;;;;;;1.83;0.55;;;14.90;99.90;;;;;;5092900;28;20242;-77
2023/09/08 02:22:19;;;;;;;0.93;0.50;;;14.90;99.90;;;;;;5093057;28;20199;-76
2023/09/08 02:24:51;;;;;;;0.50;0.40;;;14.90;99.90;;;;;;5093162;28;20184;-76
2023/09/08 02:27:24;;;;;;;1.00;0.52;;;14.80;99.90;;;;;;5089636;28;20196;-76
2023/09/08 02:29:55;;;;;;;0.95;0.60;;;14.90;99.90;;;;;;5092732;28;20208;-75
2023/09/08 02:32:27;;;;;;;0.73;0.40;;;14.90;99.90;;;;;;5084315;28;20188;-76
2023/09/08 02:34:58;;;;;;;1.63;0.50;;;14.90;99.90;;;;;;5074853;28;20322;-78
2023/09/08 02:37:29;;;;;;;1.20;0.60;;;15.10;99.90;;;;;;5092962;28;20195;-74
2023/09/08 02:40:00;;;;;;;1.35;0.40;;;15.20;99.90;;;;;;5093111;28;20239;-77
2023/09/08 02:42:32;;;;;;;0.55;0.38;;;15.30;99.90;;;;;;5092832;28;20184;-78
2023/09/08 02:45:03;;;;;;;0.75;0.35;;;15.40;99.90;;;;;;5092776;28;20203;-79
2023/09/08 02:47:34;;;;;;;0.95;0.70;;;15.40;99.90;;;;;;5093026;28;20195;-77
2023/09/08 02:50:07;;;;;;;1.30;0.65;;;15.40;99.90;;;;;;5092631;28;20192;-78
2023/09/08 02:52:38;;;;;;;1.67;0.50;;;15.40;99.90;;;;;;5092588;28;20216;-75
2023/09/08 02:55:09;;;;;;;2.38;0.68;;;15.40;99.90;;;;;;5092495;28;20228;-73
2023/09/08 02:57:41;;;;;;;0.90;0.50;;;15.30;99.90;;;;;;5092618;28;20242;-72
2023/09/08 03:00:13;;;;;;;0.68;0.50;;;15.30;99.90;;;;;;5092540;28;20184;-72
2023/09/08 03:02:43;;;;;;;0.90;0.50;;;15.30;99.90;;;;;;5092749;28;20295;-73
2023/09/08 03:05:14;;;;;;;1.40;0.60;;;15.30;99.90;;;;;;5083499;28;20196;-72
2023/09/08 03:07:45;;;;;;;1.27;0.55;;;15.40;99.90;;;;;;5093236;28;20200;-71
2023/09/08 03:10:16;;;;;;;0.57;0.50;;;15.50;99.90;;;;;;5096445;28;20301;-75
2023/09/08 03:12:49;;;;;;;0.65;0.50;;;15.80;99.90;;;;;;5096562;28;20199;-73
2023/09/08 03:15:20;;;;;;;1.05;0.55;;;15.90;99.90;;;;;;5096670;28;20645;-74
2023/09/08 03:17:50;;;;;;;1.30;0.52;;;15.90;99.90;;;;;;5096139;28;20242;-72
2023/09/08 03:20:21;;;;;;;0.95;0.60;;;16.00;99.90;;;;;;5090170;28;20275;-73
2023/09/08 03:22:52;;;;;;;2.47;0.73;;;16.00;99.90;;;;;;5084264;28;20276;-72
2023/09/08 03:25:23;;;;;;;0.60;0.60;;;16.00;99.90;;;;;;5076231;28;20551;-77
2023/09/08 03:27:56;;;;;;;0.50;0.50;;;16.20;99.90;;;;;;5079336;28;20292;-78
2023/09/08 03:30:27;;;;;;;1.92;0.70;;;16.50;99.90;;;;;;5095266;28;20636;-81
2023/09/08 03:32:57;;;;;;;1.38;0.50;;;16.60;99.90;;;;;;5096452;28;20664;-79
2023/09/08 03:35:28;;;;;;;0.85;0.57;;;16.60;99.90;;;;;;5096237;28;20216;-77
2023/09/08 03:37:59;;;;;;;0.70;0.40;;;16.70;99.90;;;;;;5089977;28;20196;-79
2023/09/08 03:40:30;;;;;;;1.05;0.50;;;16.90;99.90;;;;;;5090781;28;20639;-77
2023/09/08 03:43:03;;;;;;;1.92;0.55;;;17.10;99.90;;;;;;5097014;28;20204;-76
2023/09/08 03:45:33;;;;;;;0.70;0.40;;;17.40;99.90;;;;;;5096157;28;20279;-76
2023/09/08 03:48:04;;;;;;;1.17;0.50;;;17.50;99.90;;;;;;5094589;28;20284;-76
2023/09/08 03:50:35;;;;;;;1.40;0.75;;;17.50;99.90;;;;;;5092628;28;20199;-75
2023/09/08 03:53:06;;;;;;;2.50;0.73;;;17.60;99.90;;;;;;5096222;28;20319;-77
2023/09/08 03:55:37;;;;;;;2.13;0.40;;;17.60;99.90;;;;;;5094973;28;20683;-75
2023/09/08 03:58:10;;;;;;;0.55;0.47;;;17.70;99.90;;;;;;5096117;28;20275;-77
2023/09/08 04:00:41;;;;;;;1.77;0.65;;;17.90;99.90;;;;;;5096453;28;20271;-76
2023/09/08 04:03:12;;;;;;;1.42;0.40;;;18.10;99.90;;;;;;5096461;28;20283;-75
2023/09/08 04:05:42;;;;;;;0.77;0.40;;;18.20;99.90;;;;;;5096339;28;20275;-77
2023/09/08 04:08:13;;;;;;;1.38;0.40;;;18.30;99.90;;;;;;5091832;28;20271;-82
2023/09/08 04:10:44;;;;;;;0.32;0.20;;;18.30;99.90;;;;;;5075652;28;20713;-75
2023/09/08 04:13:17;;;;;;;1.55;0.30;;;18.40;99.90;;;;;;5075978;28;20281;-77
2023/09/08 04:15:48;;;;;;;1.52;0.30;;;18.50;99.90;;;;;;5075158;28;20303;-77
2023/09/08 04:18:18;;;;;;;0.50;0.20;;;18.60;99.90;;;;;;5076139;28;20311;-75
2023/09/08 04:20:49;;;;;;;0.35;0.20;;;18.70;99.90;;;;;;5075755;28;20737;-77
2023/09/08 04:23:20;;;;;;;1.17;0.30;;;18.70;99.90;;;;;;5075587;28;20229;-75
2023/09/08 04:25:51;;;;;;;0.45;0.28;;;18.80;99.90;;;;;;5075651;28;20272;-77
2023/09/08 04:28:24;;;;;;;1.15;0.30;;;18.80;99.90;;;;;;5075699;28;20291;-76
2023/09/08 04:30:54;;;;;;;0.63;0.30;;;18.80;99.90;;;;;;5082541;28;20648;-74
2023/09/08 04:33:26;;;;;;;1.38;0.30;;;18.80;99.90;;;;;;5095797;28;20210;-75
2023/09/08 04:35:56;;;;;;;0.98;0.20;;;18.80;99.90;;;;;;5095736;28;20220;-78
2023/09/08 04:38:27;;;;;;;1.15;0.40;;;18.80;99.90;;;;;;5095554;28;20662;-74
2023/09/08 04:40:58;;;;;;;0.63;0.40;;;18.90;99.90;;;;;;5095942;28;20224;-77
2023/09/08 04:43:31;;;;;;;0.93;0.50;;;18.90;99.90;;;;;;5095721;28;20275;-79
2023/09/08 04:46:02;;;;;;;1.42;0.30;;;18.90;99.90;;;;;;5095861;28;20279;-76
2023/09/08 04:48:33;;;;;;;0.95;0.20;;;18.90;99.90;;;;;;5095563;28;20640;-77
2023/09/08 04:51:04;;;;;;;0.47;0.30;;;19.10;99.90;;;;;;5074592;28;20702;-75
2023/09/08 04:53:36;;;;;;;1.10;0.40;;;19.20;99.90;;;;;;5074962;28;20225;-76
2023/09/08 04:56:07;;;;;;;2.28;0.30;;;19.20;99.90;;;;;;5075156;28;20266;-77
2023/09/08 04:58:40;;;;;;;1.38;0.20;;;19.20;99.90;;;;;;5074737;28;20628;-75
2023/09/08 05:01:10;;;;;;;0.85;0.20;;;19.20;99.90;;;;;;5075360;28;20268;-77
2023/09/08 05:03:42;;;;;;;0.47;0.20;;;19.20;99.90;;;;;;5057437;28;20200;-78
2023/09/08 05:06:13;;;;;;;0.63;0.20;;;19.20;99.90;;;;;;5075222;28;20211;-75
2023/09/08 05:08:44;;;;;;;0.77;0.20;;;19.10;99.90;;;;;;5074917;28;20200;-76
2023/09/08 05:11:15;;;;;;;1.80;0.20;;;19.20;99.90;;;;;;5074926;28;20275;-76
2023/09/08 05:13:48;;;;;;;1.35;0.20;;;19.20;99.90;;;;;;5074763;28;20225;-75
2023/09/08 05:16:25;;;;;;;0.30;0.20;;;19.20;99.90;;;;;;5075460;28;20775;-76
2023/09/08 05:18:56;;;;;;;1.42;0.30;;;19.20;99.90;;;;;;5074692;28;20227;-76
2023/09/08 05:21:27;;;;;;;0.10;0.10;;;19.20;99.90;;;;;;5074414;28;20655;-74
2023/09/08 05:23:58;;;;;;;0.65;0.22;;;19.20;99.90;;;;;;5074549;28;20193;-74
2023/09/08 05:26:28;;;;;;;0.65;0.20;;;19.20;99.90;;;;;;5076936;28;20256;-74
2023/09/08 05:29:01;;;;;;;0.55;0.30;;;19.20;99.90;;;;;;5091468;28;20603;-75
2023/09/08 05:31:32;;;;;;;2.65;0.22;;;19.10;99.90;;;;;;5094690;28;20223;-76
2023/09/08 05:34:03;;;;;;;0.30;0.20;;;19.10;99.90;;;;;;5092435;28;20287;-75
2023/09/08 05:36:35;;;;;;;0.35;0.20;;;19.10;99.90;;;;;;5083679;28;20680;-81
2023/09/08 05:39:07;;;;;;;0.68;0.20;;;19.10;99.90;;;;;;5074292;28;20280;-79
2023/09/08 05:41:38;;;;;;;0.45;0.20;;;19.10;99.90;;;;;;5074310;28;20189;-76
2023/09/08 05:44:10;;;;;;;0.35;0.20;;;19.10;99.90;;;;;;5074097;28;20611;-75
2023/09/08 05:46:41;;;;;;;0.63;0.30;;;19.00;99.90;;;;;;5074164;28;20653;-76
2023/09/08 05:49:12;;;;;;;0.85;0.20;;;19.00;99.90;;;;;;5074060;28;20189;-76
2023/09/08 05:51:43;;;;;;;1.23;0.20;;;18.90;99.90;;;;;;5073831;28;20274;-80
2023/09/08 05:54:14;;;;;;;0.60;0.20;;;18.90;99.90;;;;;;5090334;28;20619;-78
2023/09/08 05:56:46;;;;;;;1.55;0.20;;;18.90;99.90;;;;;;5094160;28;20782;-76
2023/09/08 05:59:18;;;;;;;0.75;0.30;;;18.90;99.90;;;;;;5094184;28;20231;-75
2023/09/08 06:01:49;;;;;;;1.05;0.30;;;18.90;99.90;;;;;;5094061;28;20280;-75
2023/09/08 06:04:20;;;;;;;1.92;0.20;;;18.90;99.90;;;;;;5093773;28;20275;-75
2023/09/08 06:06:51;;;;;;;0.45;0.20;;;18.90;99.90;;;;;;5093387;28;20224;-76
2023/09/08 06:09:22;;;;;;;1.23;0.35;;;18.80;99.90;;;;;;5093752;28;20198;-77
2023/09/08 06:11:52;;;;;;;0.80;0.28;;;18.60;99.90;;;;;;5090408;28;20300;-77
2023/09/08 06:14:25;;;;;;;0.20;0.15;;;18.50;99.90;;;;;;5093047;28;20203;-74
2023/09/08 06:16:56;;;;;;;1.50;0.20;;;18.40;99.90;;;;;;5093755;28;20220;-75
2023/09/08 06:19:27;;;;;;;0.95;0.30;;;18.20;99.90;;;;;;5093425;28;20192;-75
2023/09/08 06:21:58;;;;;;;0.40;0.20;;;18.20;99.90;;;;;;5093599;28;20234;-74
2023/09/08 06:24:30;;;;;;;0.20;0.20;;;18.10;99.90;;;;;;5093462;28;20203;-74
2023/09/08 06:27:01;;;;;;;0.20;0.20;;;18.10;99.90;;;;;;5093106;28;20747;-75
2023/09/08 06:29:34;;;;;;;0.22;0.20;;;18.00;99.90;;;;;;5073834;28;20239;-76
2023/09/08 06:32:05;;;;;;;1.10;0.20;;;18.00;99.90;;;;;;5082112;28;20267;-74
2023/09/08 06:34:36;;;;;;;0.40;0.20;;;18.00;99.90;;;;;;5093351;28;20275;-74
2023/09/08 06:37:07;;;;;;;0.68;0.20;;;18.00;99.90;;;;;;5091160;28;20245;-75
2023/09/08 06:39:37;;;;;;;0.40;0.30;;;17.90;99.90;;;;;;5081744;28;20275;-73
2023/09/08 06:42:08;;;;;;;0.22;0.20;;;17.90;99.90;;;;;;5091099;28;20311;-74
2023/09/08 06:44:41;;;;;;;0.30;0.30;;;17.90;99.90;;;;;;5093201;28;20188;-76
2023/09/08 06:47:12;;;;;;;0.13;0.13;;;18.00;99.90;;;;;;5093547;28;20188;-74
2023/09/08 06:49:43;;;;;;;0.68;0.20;;;18.00;99.90;;;;;;5090118;28;20188;-74
2023/09/08 06:52:14;;;;;;;1.20;0.20;;;18.00;99.90;;;;;;5081590;28;20758;-73
2023/09/08 06:54:46;;;;;;;0.52;0.20;;;18.00;99.90;;;;;;5082299;28;20193;-73
2023/09/08 06:57:20;;;;;;;2.60;0.38;;;18.00;99.90;;;;;;5077971;28;20200;-76
2023/09/08 06:59:53;;;;;;;0.50;0.20;;;18.00;99.90;;;;;;5078403;28;20720;-74
2023/09/08 07:02:24;;;;;;;0.43;0.20;;;17.80;99.90;;;;;;5072341;28;20207;-73
2023/09/08 07:04:54;;;;;;;2.50;0.30;;;17.70;99.90;;;;;;5086919;28;20199;-76
2023/09/08 07:07:25;;;;;;;1.90;0.30;;;17.50;99.90;;;;;;5090397;28;20188;-77
2023/09/08 07:09:56;;;;;;;0.20;0.20;;;17.40;99.90;;;;;;5092598;28;20188;-75
2023/09/08 07:12:27;;;;;;;0.10;0.10;;;17.20;99.90;;;;;;5093177;28;20193;-75
2023/09/08 07:15:00;;;;;;;1.90;1.15;;;17.10;99.90;;;;;;5087477;28;20197;-73
2023/09/08 07:17:31;;;;;;;0.38;0.20;;;17.00;99.90;;;;;;5080252;28;20224;-75
2023/09/08 07:20:01;;;;;;;1.95;0.20;;;16.80;99.90;;;;;;5092460;28;20200;-73
2023/09/08 07:22:32;;;;;;;0.20;0.20;;;16.70;99.90;;;;;;5072951;28;20226;-76
2023/09/08 07:25:03;;;;;;;0.75;0.30;;;16.70;99.90;;;;;;5076537;28;20193;-75
2023/09/08 07:27:34;;;;;;;0.38;0.25;;;16.60;99.90;;;;;;5093100;28;20334;-75
2023/09/08 07:30:08;;;;;;;0.50;0.30;;;16.50;99.90;;;;;;5092910;28;20619;-74
2023/09/08 07:32:39;;;;;;;0.60;0.30;;;16.40;99.90;;;;;;5092839;28;20192;-74
2023/09/08 07:35:13;;;;;;;0.55;0.30;;;16.30;99.90;;;;;;5092495;28;20567;-75
2023/09/08 07:37:44;;;;;;;0.57;0.30;;;16.20;99.90;;;;;;5090255;28;20193;-76
2023/09/08 07:40:16;;;;;;;0.30;0.30;;;16.10;99.90;;;;;;5091849;28;20193;-74
2023/09/08 07:42:46;;;;;;;0.20;0.20;;;16.10;99.90;;;;;;5084972;28;20185;-76
2023/09/08 07:45:19;;;;;;;0.35;0.25;;;16.10;99.90;;;;;;5092392;28;20202;-75
2023/09/08 07:47:50;;;;;;;0.47;0.30;;;16.00;99.90;;;;;;5084187;28;20193;-75
2023/09/08 07:50:23;;;;;;;0.20;0.20;;;15.90;99.90;;;;;;5074014;28;20210;-74
2023/09/08 07:52:55;;;;;;;0.30;0.25;;;15.90;99.90;;;;;;5090779;28;20246;-73
2023/09/08 07:55:27;;;;;;;0.90;0.30;;;15.70;99.90;;;;;;5094634;28;20304;-73
2023/09/08 07:57:58;;;;;;;2.72;0.40;;;15.60;99.90;;;;;;5076220;28;20228;-75
2023/09/08 08:00:33;;;;;;;0.55;0.30;;;15.60;99.90;;;;;;5093153;28;20188;-75
2023/09/08 08:03:03;;;;;;;0.85;0.30;;;15.50;99.90;;;;;;5095929;28;20192;-78
2023/09/08 08:05:34;;;;;;;1.65;0.40;;;15.50;99.90;;;;;;5095714;28;20204;-74
2023/09/08 08:08:05;;;;;;;0.57;0.40;;;15.30;99.90;;;;;;5093242;28;20749;-73
2023/09/08 08:10:36;;;;;;;0.82;0.30;;;15.30;99.90;;;;;;5086825;28;20204;-74
2023/09/08 08:13:07;;;;;;;0.80;0.32;;;15.20;99.90;;;;;;5091655;28;20188;-73
2023/09/08 08:15:45;;;;;;;0.30;0.30;;;15.20;99.90;;;;;;5094388;28;20242;-76
2023/09/08 08:18:16;;;;;;;0.73;0.40;;;15.20;99.90;;;;;;5095760;28;20659;-73
2023/09/08 08:20:47;;;;;;;0.40;0.30;;;15.10;99.90;;;;;;5095684;28;20245;-75
2023/09/08 08:23:17;;;;;;;0.40;0.40;;;15.10;99.90;;;;;;5086289;28;20724;-74
2023/09/08 08:25:48;;;;;;;0.52;0.38;;;15.10;99.90;;;;;;5085909;28;20815;-78
2023/09/08 08:28:19;;;;;;;0.40;0.40;;;15.00;99.90;;;;;;5095605;28;20196;-75
2023/09/08 08:30:52;;;;;;;0.68;0.30;;;15.00;99.90;;;;;;5095636;28;20231;-76
2023/09/08 08:33:22;;;;;;;0.63;0.40;;;15.00;99.90;;;;;;5095286;28;20184;-74
2023/09/08 08:36:01;;;;;;;1.08;0.52;;;14.90;99.90;;;;;;5095798;28;20571;-73
2023/09/08 08:38:32;;;;;;;1.08;0.40;;;14.90;99.90;;;;;;5089078;28;20215;-73
2023/09/08 08:41:07;;;;;;;1.15;0.50;;;14.90;99.90;;;;;;5091452;28;20201;-75
2023/09/08 08:43:38;;;;;;;0.45;0.45;;;14.80;99.90;;;;;;5092211;28;20568;-74
2023/09/08 08:46:11;;;;;;;1.33;0.50;;;14.80;99.90;;;;;;5084590;28;20203;-76
2023/09/08 08:48:42;;;;;;;2.65;0.52;;;14.70;99.90;;;;;;5075219;28;20189;-75
2023/09/08 08:51:15;;;;;;;0.63;0.50;;;14.70;99.90;;;;;;5074248;28;20235;-76
2023/09/08 08:53:46;;;;;;;0.70;0.40;;;14.70;99.90;;;;;;5094381;28;20185;-73
2023/09/08 08:56:19;;;;;;;0.65;0.55;;;14.60;99.90;;;;;;5091136;28;20204;-72
2023/09/08 08:58:51;;;;;;;0.52;0.40;;;14.60;99.90;;;;;;5085036;28;20192;-72
2023/09/08 09:01:24;;;;;;;0.30;0.30;;;14.50;99.90;;;;;;5087137;28;20197;-74
2023/09/08 09:03:55;;;;;;;1.00;0.45;;;14.50;99.90;;;;;;5081084;28;20204;-72
2023/09/08 09:06:26;;;;;;;0.47;0.32;;;14.50;99.90;;;;;;5094670;28;20196;-73
2023/09/08 09:08:58;;;;;;;0.63;0.40;;;14.50;99.90;;;;;;5094447;28;20196;-74
2023/09/08 09:11:29;;;;;;;1.42;0.38;;;14.40;99.90;;;;;;5094520;28;20199;-74
2023/09/08 09:13:59;;;;;;;0.60;0.30;;;14.40;99.90;;;;;;5093159;28;20214;-73
2023/09/08 09:16:32;;;;;;;0.52;0.40;;;14.30;99.90;;;;;;5081664;28;20235;-74
2023/09/08 09:19:03;;;;;;;0.40;0.40;;;14.30;99.90;;;;;;5091176;28;20196;-74
2023/09/08 09:21:46;;;;;;;0.38;0.30;;;14.20;99.90;;;;;;5094498;28;20533;-74
2023/09/08 09:24:30;;;;;;;1.30;0.50;;;14.20;99.90;;;;;;5094508;28;20257;-74
2023/09/08 09:27:01;;;;;;;0.95;0.40;;;14.10;99.90;;;;;;5093454;28;20200;-72
2023/09/08 09:29:32;;;;;;;1.88;0.40;;;14.10;99.90;;;;;;5093967;28;20223;-73
2023/09/08 09:32:07;;;;;;;1.05;0.45;;;14.10;99.90;;;;;;5094212;28;20199;-73
2023/09/08 09:34:46;;;;;;;1.08;0.50;;;14.10;99.90;;;;;;5092666;28;20202;-72
2023/09/08 09:37:17;;;;;;;1.08;0.50;;;14.10;99.90;;;;;;5078729;28;20219;-73
2023/09/08 09:39:52;;;;;;;0.45;0.40;;;14.00;99.90;;;;;;5093553;28;20208;-72
2023/09/08 09:42:23;;;;;;;1.85;0.50;;;14.00;99.90;;;;;;5093335;28;20206;-74
2023/09/08 09:44:55;;;;;;;1.05;0.70;;;14.00;99.90;;;;;;5093947;28;20203;-73
2023/09/08 09:47:28;;;;;;;1.38;0.80;;;14.00;99.90;;;;;;5093944;28;20196;-74
2023/09/08 09:49:59;;;;;;;2.58;0.70;;;14.00;99.90;;;;;;5093835;28;20211;-73
2023/09/08 09:52:31;;;;;;;2.45;0.85;;;13.90;99.90;;;;;;5093809;28;20232;-73
2023/09/08 09:55:03;;;;;;;1.73;0.80;;;13.90;99.90;;;;;;5088856;28;20200;-74
2023/09/08 09:57:37;;;;;;;1.38;0.70;;;13.90;99.90;;;;;;5093186;28;20216;-74
2023/09/08 10:00:09;;;;;;;1.73;0.80;;;13.90;99.90;;;;;;5093964;28;20207;-75
2023/09/08 10:02:42;;;;;;;0.88;0.60;;;13.80;99.90;;;;;;5093045;28;20200;-74
2023/09/08 10:05:16;;;;;;;1.63;0.70;;;13.80;99.90;;;;;;5093641;28;20196;-73
2023/09/08 10:07:48;;;;;;;0.57;0.40;;;13.80;99.90;;;;;;5093272;28;20191;-75
2023/09/08 10:10:20;;;;;;;0.68;0.45;;;13.70;99.90;;;;;;5093034;28;20199;-73
2023/09/08 10:12:56;;;;;;;1.33;0.70;;;13.70;99.90;;;;;;5089156;28;20197;-72
2023/09/08 10:15:27;;;;;;;1.50;0.68;;;13.70;99.90;;;;;;5093177;28;20216;-72
2023/09/08 10:18:01;;;;;;;1.63;0.80;;;13.70;99.90;;;;;;5093608;28;20227;-73
2023/09/08 10:20:32;;;;;;;0.65;0.60;;;13.70;99.90;;;;;;5093222;28;20200;-74
2023/09/08 10:23:11;;;;;;;1.95;0.77;;;13.60;99.90;;;;;;5090145;28;20278;-74
2023/09/08 10:25:53;;;;;;;1.70;0.50;;;13.60;99.90;;;;;;5093218;28;20633;-75
2023/09/08 10:28:24;;;;;;;0.88;0.55;;;13.60;99.90;;;;;;5091832;28;20196;-73
2023/09/08 10:30:55;;;;;;;1.15;0.65;;;13.50;99.90;;;;;;5093573;28;20249;-73
2023/09/08 10:33:29;;;;;;;1.10;0.60;;;13.50;99.90;;;;;;5081709;28;20197;-73
2023/09/08 10:36:02;;;;;;;1.00;0.65;;;13.50;99.90;;;;;;5093274;28;20200;-72
2023/09/08 10:38:34;;;;;;;1.10;1.00;;;13.40;99.90;;;;;;5089510;28;20278;-74
2023/09/08 10:41:33;;;;;;;1.15;0.70;;;13.40;99.90;;;;;;5092295;28;20251;-74
2023/09/08 10:44:10;;;;;;;1.65;0.70;;;13.30;99.90;;;;;;5075054;28;20199;-74
2023/09/08 10:46:40;;;;;;;1.65;0.70;;;13.30;99.90;;;;;;5088500;28;20278;-73
2023/09/08 10:49:13;;;;;;;1.10;0.50;;;13.30;99.90;;;;;;5091624;28;20530;-73
2023/09/08 10:51:44;;;;;;;0.77;0.50;;;13.30;99.90;;;;;;5082898;28;20228;-73
2023/09/08 10:54:35;;;;;;;1.55;0.60;;;13.30;99.90;;;;;;5091079;28;20195;-73
2023/09/08 10:57:15;;;;;;;2.30;0.60;;;13.20;99.90;;;;;;5092784;28;20239;-74
2023/09/08 10:59:53;;;;;;;0.95;0.70;;;13.20;99.90;;;;;;5091079;28;20196;-74
2023/09/08 11:02:38;;;;;;;2.00;0.70;;;13.20;99.90;;;;;;5090266;28;20189;-73
2023/09/08 11:05:13;;;;;;;1.05;0.60;;;13.20;99.90;;;;;;5085380;28;20209;-73
2023/09/08 11:07:45;;;;;;;2.55;0.85;;;13.10;99.90;;;;;;5092579;28;20635;-75
2023/09/08 11:10:16;;;;;;;1.35;0.70;;;13.10;99.90;;;;;;5087264;28;20184;-74
2023/09/08 11:12:48;;;;;;;1.35;0.60;;;13.10;99.90;;;;;;5089803;28;20188;-73
2023/09/08 11:15:19;;;;;;;1.25;0.88;;;13.10;99.90;;;;;;5086298;28;20200;-74
2023/09/08 11:17:51;;;;;;;1.60;0.50;;;13.10;99.90;;;;;;5092426;28;20231;-74
2023/09/08 11:20:30;;;;;;;1.60;0.60;;;13.10;99.90;;;;;;5092664;28;20216;-76
2023/09/08 11:23:01;;;;;;;3.55;0.80;;;13.10;99.90;;;;;;5092691;28;20666;-72
2023/09/08 11:25:32;;;;;;;2.42;0.63;;;13.10;99.90;;;;;;5095262;28;20188;-73
2023/09/08 11:28:03;;;;;;;1.20;0.50;;;13.00;99.90;;;;;;5077144;28;20280;-77
2023/09/08 11:30:34;;;;;;;1.48;0.70;;;13.00;99.90;;;;;;5087141;28;20189;-74
2023/09/08 11:33:05;;;;;;;1.20;0.50;;;13.00;99.90;;;;;;5085266;28;20196;-76
2023/09/08 11:35:39;;;;;;;0.88;0.50;;;13.00;99.90;;;;;;5065447;28;20683;-75
2023/09/08 11:38:12;;;;;;;0.57;0.40;;;13.00;99.90;;;;;;5084495;28;20216;-74
2023/09/08 11:40:43;;;;;;;1.05;0.80;;;13.00;99.90;;;;;;5085369;28;20275;-73
2023/09/08 11:43:14;;;;;;;1.88;0.70;;;12.90;99.90;;;;;;5082121;28;20196;-74
2023/09/08 11:45:47;;;;;;;2.53;0.50;;;12.90;99.90;;;;;;5081487;28;20189;-74
2023/09/08 11:48:19;;;;;;;2.80;0.73;;;12.90;99.90;;;;;;5081715;28;20193;-74
2023/09/08 11:50:51;;;;;;;2.10;0.60;;;12.90;99.90;;;;;;5088225;28;20201;-76
2023/09/08 11:53:24;;;;;;;1.30;0.60;;;12.80;99.90;;;;;;5084361;28;20191;-75
2023/09/08 11:55:55;;;;;;;0.95;0.65;;;12.80;99.90;;;;;;5084951;28;20284;-73
2023/09/08 11:58:26;;;;;;;1.65;0.60;;;12.80;99.90;;;;;;5082293;28;20213;-74
2023/09/08 12:00:57;;;;;;;2.05;0.90;;;12.80;99.90;;;;;;5080892;28;20673;-76
2023/09/08 12:03:28;;;;;;;0.80;0.50;;;12.80;99.90;;;;;;5088298;28;20184;-76
2023/09/08 12:06:02;;;;;;;0.98;0.65;;;12.80;99.90;;;;;;5092468;28;20207;-77
2023/09/08 12:08:33;;;;;;;2.03;0.70;;;12.80;99.90;;;;;;5096410;28;20294;-73
2023/09/08 12:11:04;;;;;;;2.15;0.70;;;12.70;99.90;;;;;;5096460;28;20228;-76
2023/09/08 12:13:35;;;;;;;1.85;0.75;;;12.70;99.90;;;;;;5083436;28;20199;-76
2023/09/08 12:16:19;;;;;;;1.65;0.80;;;12.70;99.90;;;;;;5089423;28;20196;-74
2023/09/08 12:18:51;;;;;;;1.60;0.50;;;12.70;99.90;;;;;;5095851;28;20215;-75
2023/09/08 12:21:24;;;;;;;2.17;0.70;;;12.60;99.90;;;;;;5095087;28;20663;-75
2023/09/08 12:23:56;;;;;;;2.50;0.70;;;12.60;99.90;;;;;;5095036;28;20203;-75
2023/09/08 12:26:29;;;;;;;4.13;0.70;;;12.60;99.90;;;;;;5095998;28;20695;-76
2023/09/08 12:29:00;;;;;;;2.55;0.70;;;12.60;99.90;;;;;;5095898;28;20281;-76
2023/09/08 12:31:31;;;;;;;2.90;0.90;;;12.60;99.90;;;;;;5094377;28;20196;-75
2023/09/08 12:34:03;;;;;;;2.47;0.88;;;12.60;99.90;;;;;;5087425;28;20203;-75
2023/09/08 12:36:38;;;;;;;1.90;0.55;;;12.50;99.90;;;;;;5095148;28;20188;-75
2023/09/08 12:39:09;;;;;;;2.92;1.08;;;12.50;99.90;;;;;;5095458;28;20596;-75
2023/09/08 12:41:40;;;;;;;3.20;0.98;;;12.50;99.90;;;;;;5093175;28;20196;-76
2023/09/08 12:44:11;;;;;;;1.58;0.68;;;12.50;99.90;;;;;;5084324;28;20583;-77
2023/09/08 12:46:42;;;;;;;4.65;0.90;;;12.50;99.90;;;;;;5096394;28;20195;-74
2023/09/08 12:49:12;;;;;;;2.10;0.70;;;12.50;99.90;;;;;;5095367;28;20196;-76
2023/09/08 12:51:45;;;;;;;1.75;0.70;;;12.50;99.90;;;;;;5095057;28;20224;-76
2023/09/08 12:54:16;;;;;;;3.10;0.60;;;12.60;99.90;;;;;;5095758;28;20205;-75
2023/09/08 12:56:46;;;;;;;2.80;0.80;;;12.50;99.90;;;;;;5094764;28;20275;-75
2023/09/08 12:59:17;;;;;;;2.35;0.88;;;12.50;99.90;;;;;;5095428;28;20238;-75
2023/09/08 13:01:48;;;;;;;2.20;0.80;;;12.50;99.90;;;;;;5095138;28;20565;-76
2023/09/08 13:04:19;;;;;;;3.95;0.70;;;12.50;99.90;;;;;;5095476;28;20185;-76
2023/09/08 13:06:51;;;;;;;1.73;0.80;;;12.50;99.90;;;;;;5095250;28;20211;-76
2023/09/08 13:09:22;;;;;;;3.17;0.93;;;12.50;99.90;;;;;;5095277;28;20188;-76
2023/09/08 13:11:53;;;;;;;3.05;0.98;;;12.50;99.90;;;;;;5094935;28;20188;-76